METAR Data
IDs: Format: Raw Decoded Include TAF

Data at: 0017 UTC 24 May 2022

KORD 232351Z 03012KT 10SM SCT140 BKN190 13/00 A3027 RMK AO2 SLP251 VIRGA T01280000 10161 20128 57006